Lyon Mountain, New York
Current Conditions -  °F | °C
As of 8:53 AM on Tuesday 27 Jan 2015 (Local Time) from KPBG Reporting Station
Clear Clear  
Wind Chill: -14°   Ceiling: Unl
Heat Index:   Visibility: 10mi
Dew Point: -5°   Wind: 22mph
Humidity: 58%   Direction: 350°N
Pressure: 30.02"   Gusts: 32mph
Location:  44.72°N, 73.91°W
Report Text: KPBG 271353Z AUTO 35019G28KT 10SM CLR M14/M21 A3002 RMK AO2 PK WND 35028/1350 SLP172 T11391206
Loading
Personal Weather Stations






























Interactive Weather Map New forecast layout! Learn more

10-Day Weather Forecast

Advertisements
Track Severe Weather on mobile